Widen, West Virginia
Current Conditions -  °F | °C
As of 6:54 AM on Friday 31 Oct 2014 (Local Time) from KCRW Reporting Station
Haze Haze  
Wind Chill: 34°   Ceiling: Unl
Heat Index: 34°   Visibility: 6mi
Dew Point: 33°   Wind: 0mph
Humidity: 96%   Direction: NA
Pressure: 29.98"   Gusts: NA
Location:  38.47°N, 80.86°W
Report Text: KCRW 311054Z 00000KT 6SM BR SCT140 01/01 A2998 RMK AO2 SLP157 VLY FG T00110006
Loading
Personal Weather Stations






























Interactive Weather Map
Tropical Storm Tracking
New forecast layout! Learn more

10-Day Weather Forecast

Advertisements
Track Severe Weather on mobile